aviador You're here:

WBGR Decoded Metar

MIRI in MALAYSIA
Report Time2017-08-18 16:00:00
UTC Time2017-08-18 16:28:53
Flight Rules vfr VFR
WindCalm
Visibility9999 m
Phenomena:N/A
Clouds:Scattered 014 Hf
Broken 150 Hf
Expected CloudBase > 400 ft AGL from Temp-Dew spread
Ceiling15,000 ft
Temp25°C (ISA +10)
Dew Point24°C (94% RH)
QNH1011 hPa
Density Alt1,690 ft
Elevation59 ft
Report Wrong Elevation
Raw Report
METAR WBGR 181600Z 00000KT 9999 SCT014 BKN150 25/24 Q1011=

Extra information for WBGR:More info

Metar Taf Metar & Taf Last 4 Metars F.Rules Stats Wind Profile Meteogram Temp Stats Airport Information Weather charts Add Link Nearby VenuesMetar ALERT Operation Metar Decoded Social comments